Time;durP1;ratioP1;P1;durP2;ratioP2;P2;SDS_P1;SDS_P2;PMS_P1;PMS_P2;Temp;Humidity;BMP_temperature;BMP_pressure;BME280_temperature;BME280_humidity;BME280_pressure;Samples;Min_cycle;Max_cycle;Signal;HPM_P1;HPM_P2
2021/01/11 00:00:56;;;;;;;21.58;9.30;;;2.20;76.50;;;;;;5043491;28;20108;-63
2021/01/11 00:03:22;;;;;;;16.50;8.93;;;2.20;77.30;;;;;;5042821;28;20029;-62
2021/01/11 00:05:48;;;;;;;17.15;8.77;;;2.10;77.50;;;;;;5042529;28;20069;-63
2021/01/11 00:08:14;;;;;;;19.23;9.10;;;2.00;77.30;;;;;;5038360;28;20043;-63
2021/01/11 00:10:40;;;;;;;18.58;8.95;;;2.00;78.10;;;;;;5043105;28;20029;-63
2021/01/11 00:13:05;;;;;;;18.20;8.63;;;2.10;77.80;;;;;;5042947;28;20041;-63
2021/01/11 00:15:31;;;;;;;18.35;8.68;;;2.10;77.60;;;;;;5045722;28;20064;-63
2021/01/11 00:17:56;;;;;;;19.80;9.18;;;2.10;78.00;;;;;;5047744;28;20047;-62
2021/01/11 00:20:22;;;;;;;18.33;9.85;;;2.20;77.40;;;;;;5047062;28;20064;-63
2021/01/11 00:22:48;;;;;;;16.23;8.30;;;2.10;77.60;;;;;;5037013;28;20116;-63
2021/01/11 00:25:13;;;;;;;15.60;8.65;;;2.10;77.10;;;;;;5045502;28;20033;-63
2021/01/11 00:27:40;;;;;;;18.45;8.65;;;2.00;77.40;;;;;;5046688;28;20029;-63
2021/01/11 00:30:06;;;;;;;20.88;8.95;;;2.10;78.00;;;;;;5046277;28;20053;-63
2021/01/11 00:32:33;;;;;;;17.77;9.00;;;2.10;77.40;;;;;;5045758;28;20128;-63
2021/01/11 00:34:59;;;;;;;16.30;8.15;;;2.30;77.50;;;;;;5044787;28;20110;-63
2021/01/11 00:37:25;;;;;;;15.27;8.48;;;2.40;76.40;;;;;;5034815;28;20037;-63
2021/01/11 00:39:52;;;;;;;18.50;8.88;;;2.40;76.50;;;;;;5040611;28;20107;-63
2021/01/11 00:42:17;;;;;;;14.93;8.40;;;2.50;76.00;;;;;;5045159;28;20029;-63
2021/01/11 00:44:43;;;;;;;14.80;8.25;;;2.50;75.50;;;;;;5044377;28;20078;-63
2021/01/11 00:47:09;;;;;;;17.90;8.68;;;2.50;76.00;;;;;;5045442;28;20033;-63
2021/01/11 00:49:35;;;;;;;16.67;9.10;;;2.50;75.80;;;;;;5045372;28;20276;-63
2021/01/11 00:52:03;;;;;;;16.02;9.10;;;2.40;75.80;;;;;;5040840;28;20040;-63
2021/01/11 00:54:29;;;;;;;17.33;8.90;;;2.50;76.50;;;;;;5046362;28;20043;-63
2021/01/11 00:56:58;;;;;;;17.58;8.63;;;2.40;76.20;;;;;;5045897;28;20033;-63
2021/01/11 00:59:42;;;;;;;19.55;9.02;;;2.50;76.30;;;;;;5046209;28;20087;-63
2021/01/11 01:02:08;;;;;;;18.88;8.35;;;2.60;75.70;;;;;;5045371;28;20048;-63
2021/01/11 01:04:34;;;;;;;18.83;8.43;;;2.60;75.30;;;;;;5045023;28;20463;-63
2021/01/11 01:07:03;;;;;;;16.13;8.18;;;2.60;74.90;;;;;;5045664;28;20024;-62
2021/01/11 01:09:30;;;;;;;19.17;9.30;;;2.60;75.70;;;;;;5045373;28;20440;-63
2021/01/11 01:11:55;;;;;;;15.23;8.50;;;2.60;75.30;;;;;;5045072;28;20040;-63
2021/01/11 01:14:21;;;;;;;16.55;8.80;;;2.60;75.50;;;;;;5040193;28;20087;-63
2021/01/11 01:16:47;;;;;;;15.20;7.90;;;2.60;75.60;;;;;;5045054;28;20396;-63
2021/01/11 01:19:12;;;;;;;15.20;7.95;;;2.70;75.50;;;;;;5041130;28;20036;-63
2021/01/11 01:21:38;;;;;;;15.48;7.70;;;2.70;75.00;;;;;;5044038;28;20029;-62
2021/01/11 01:24:04;;;;;;;13.85;7.88;;;2.70;74.70;;;;;;5038345;28;20031;-63
2021/01/11 01:26:30;;;;;;;14.52;8.18;;;2.80;74.90;;;;;;5043396;28;20040;-63
2021/01/11 01:28:55;;;;;;;12.93;7.22;;;2.70;74.10;;;;;;5045465;28;20147;-63
2021/01/11 01:31:21;;;;;;;14.07;7.85;;;2.70;74.50;;;;;;5043705;28;20052;-63
2021/01/11 01:33:47;;;;;;;14.60;7.55;;;2.80;74.90;;;;;;5040499;28;20029;-63
2021/01/11 01:36:12;;;;;;;14.35;7.32;;;2.70;74.70;;;;;;5044740;28;20477;-63
2021/01/11 01:38:38;;;;;;;14.15;8.38;;;2.70;74.80;;;;;;5045315;28;20035;-63
2021/01/11 01:41:03;;;;;;;14.27;7.80;;;2.70;75.10;;;;;;5045609;28;20029;-63
2021/01/11 01:43:29;;;;;;;14.75;8.25;;;2.70;74.50;;;;;;5044985;28;20041;-63
2021/01/11 01:45:55;;;;;;;15.43;8.07;;;2.70;74.70;;;;;;5044519;28;20055;-63
2021/01/11 01:48:21;;;;;;;15.18;7.30;;;2.60;74.20;;;;;;5044756;28;20032;-63
2021/01/11 01:50:47;;;;;;;13.07;7.13;;;2.50;75.60;;;;;;5045889;28;20489;-63
2021/01/11 01:53:13;;;;;;;13.50;7.30;;;2.40;75.90;;;;;;5044853;28;20056;-63
2021/01/11 01:55:39;;;;;;;15.98;7.68;;;2.40;75.90;;;;;;5044508;28;20044;-63
2021/01/11 01:58:08;;;;;;;15.63;7.07;;;2.50;75.90;;;;;;5044765;28;20251;-63
2021/01/11 02:00:34;;;;;;;15.20;7.03;;;2.40;75.70;;;;;;5044841;28;20534;-63
2021/01/11 02:02:59;;;;;;;12.60;7.20;;;2.50;75.80;;;;;;5045357;28;20025;-63
2021/01/11 02:05:25;;;;;;;11.40;6.43;;;2.60;75.80;;;;;;5044349;28;20743;-63
2021/01/11 02:08:15;;;;;;;13.65;7.20;;;2.60;74.60;;;;;;5043524;28;20440;-63
2021/01/11 02:11:13;;;;;;;15.95;7.15;;;2.60;75.50;;;;;;5044695;28;20531;-63
2021/01/11 02:14:33;;;;;;;12.27;6.97;;;2.70;75.40;;;;;;5043087;28;20753;-63
2021/01/11 02:17:13;;;;;;;12.35;6.32;;;2.90;74.70;;;;;;5001369;28;20680;-63
2021/01/11 02:20:15;;;;;;;12.63;7.03;;;2.80;74.20;;;;;;5036679;28;20133;-63
2021/01/11 02:23:25;;;;;;;12.75;6.57;;;2.80;74.10;;;;;;5043438;28;20076;-63
2021/01/11 02:26:03;;;;;;;13.45;7.18;;;2.70;74.70;;;;;;5034008;28;20041;-63
2021/01/11 02:29:02;;;;;;;11.80;6.55;;;2.70;74.90;;;;;;5042688;28;20044;-63
2021/01/11 02:31:30;;;;;;;12.20;6.80;;;2.80;74.40;;;;;;5017234;28;20064;-63
2021/01/11 02:33:59;;;;;;;12.70;7.07;;;2.90;75.00;;;;;;5044553;28;20086;-63
2021/01/11 02:36:26;;;;;;;13.73;7.18;;;2.90;74.40;;;;;;5041694;28;20036;-63
2021/01/11 02:38:55;;;;;;;11.95;7.07;;;2.90;74.80;;;;;;5040723;28;20055;-63
2021/01/11 02:41:20;;;;;;;11.35;6.68;;;2.90;74.40;;;;;;5038159;28;20116;-63
2021/01/11 02:43:46;;;;;;;11.25;6.13;;;2.90;74.50;;;;;;5040268;28;20841;-63
2021/01/11 02:46:12;;;;;;;12.93;6.78;;;2.90;74.70;;;;;;5040735;28;20788;-63
2021/01/11 02:49:01;;;;;;;12.32;6.32;;;2.80;75.10;;;;;;5038536;28;20733;-63
2021/01/11 02:51:41;;;;;;;12.27;6.38;;;2.70;75.50;;;;;;5040458;28;20048;-63
2021/01/11 02:54:22;;;;;;;14.40;7.03;;;2.80;75.60;;;;;;5040869;28;20064;-63
2021/01/11 02:57:22;;;;;;;12.30;6.82;;;2.80;75.60;;;;;;5035486;28;20061;-62
2021/01/11 02:59:52;;;;;;;14.40;7.40;;;2.80;75.60;;;;;;5029186;28;20041;-63
2021/01/11 03:02:19;;;;;;;13.02;6.40;;;2.80;75.80;;;;;;5039921;28;20550;-63
2021/01/11 03:04:45;;;;;;;11.38;6.68;;;2.90;75.60;;;;;;5040081;28;20043;-63
2021/01/11 03:07:11;;;;;;;13.15;6.97;;;2.90;76.20;;;;;;5039834;28;20129;-62
2021/01/11 03:09:42;;;;;;;12.52;7.32;;;2.80;76.40;;;;;;5040725;28;20064;-62
2021/01/11 03:12:09;;;;;;;12.52;6.93;;;2.60;77.50;;;;;;5038646;28;20048;-63
2021/01/11 03:14:35;;;;;;;14.38;7.45;;;2.60;78.30;;;;;;5040519;28;20029;-63
2021/01/11 03:17:01;;;;;;;14.35;7.63;;;2.60;79.20;;;;;;5039417;28;20037;-62
2021/01/11 03:19:26;;;;;;;13.32;7.72;;;2.60;79.40;;;;;;5036932;28;20079;-63
2021/01/11 03:21:52;;;;;;;15.07;7.65;;;2.70;79.70;;;;;;5039176;28;20059;-63
2021/01/11 03:24:19;;;;;;;12.88;7.15;;;2.60;79.90;;;;;;5038603;28;20442;-63
2021/01/11 03:26:45;;;;;;;16.52;7.35;;;2.60;80.10;;;;;;5037305;28;20047;-63
2021/01/11 03:29:15;;;;;;;14.43;7.03;;;2.40;80.90;;;;;;5038557;28;20102;-63
2021/01/11 03:31:41;;;;;;;14.48;7.97;;;2.40;81.10;;;;;;5038863;28;20033;-63
2021/01/11 03:34:08;;;;;;;19.60;8.02;;;2.30;81.80;;;;;;5035120;28;20029;-63
2021/01/11 03:36:34;;;;;;;17.23;7.97;;;2.20;82.20;;;;;;5038202;28;20033;-63
2021/01/11 03:39:00;;;;;;;13.25;7.88;;;2.20;83.10;;;;;;5038636;28;20783;-63
2021/01/11 03:41:26;;;;;;;16.60;8.68;;;2.20;83.20;;;;;;5038461;28;20108;-63
2021/01/11 03:43:52;;;;;;;16.63;8.88;;;2.20;83.70;;;;;;5037229;28;20682;-63
2021/01/11 03:46:18;;;;;;;19.63;8.95;;;2.20;84.00;;;;;;5038080;28;20102;-63
2021/01/11 03:48:45;;;;;;;16.52;9.30;;;2.20;83.80;;;;;;5038710;28;20116;-63
2021/01/11 03:51:11;;;;;;;15.60;8.98;;;2.20;83.70;;;;;;5042345;28;20040;-63
2021/01/11 03:53:38;;;;;;;14.50;8.43;;;2.20;83.60;;;;;;5042499;28;20489;-63
2021/01/11 03:56:07;;;;;;;12.23;6.97;;;2.30;83.30;;;;;;5042143;28;20485;-63
2021/01/11 03:58:34;;;;;;;17.83;8.77;;;2.40;83.30;;;;;;5042452;28;20040;-63
2021/01/11 04:00:59;;;;;;;15.43;7.88;;;2.40;82.70;;;;;;5042236;28;20033;-63
2021/01/11 04:03:26;;;;;;;13.93;7.40;;;2.50;82.10;;;;;;5036216;28;20063;-63
2021/01/11 04:05:52;;;;;;;13.45;7.47;;;2.60;82.30;;;;;;5041520;28;20033;-63
2021/01/11 04:08:18;;;;;;;14.02;7.70;;;2.60;81.90;;;;;;5040642;28;20731;-63
2021/01/11 04:10:44;;;;;;;14.43;7.55;;;2.60;81.60;;;;;;5042029;28;20147;-63
2021/01/11 04:13:10;;;;;;;15.38;7.90;;;2.60;81.20;;;;;;5041261;28;20116;-63
2021/01/11 04:15:35;;;;;;;14.63;8.00;;;2.60;81.40;;;;;;5042001;28;20459;-63
2021/01/11 04:18:02;;;;;;;11.82;7.40;;;2.60;81.60;;;;;;5040342;28;20051;-63
2021/01/11 04:20:28;;;;;;;16.00;7.53;;;2.60;81.70;;;;;;5042254;28;20052;-63
2021/01/11 04:22:54;;;;;;;14.48;8.45;;;2.60;81.70;;;;;;5037143;28;20071;-63
2021/01/11 04:25:22;;;;;;;14.43;8.77;;;2.60;81.80;;;;;;5041290;28;20557;-63
2021/01/11 04:27:47;;;;;;;15.88;7.50;;;2.60;81.80;;;;;;5041831;28;20064;-64
2021/01/11 04:30:13;;;;;;;13.85;8.38;;;2.60;81.70;;;;;;5041424;28;20111;-63
2021/01/11 04:32:39;;;;;;;14.82;7.45;;;2.60;81.70;;;;;;5041309;28;20036;-63
2021/01/11 04:35:09;;;;;;;15.23;8.05;;;2.60;82.00;;;;;;5040942;28;20048;-63
2021/01/11 04:37:37;;;;;;;15.93;7.97;;;2.60;81.90;;;;;;5041418;28;20033;-63
2021/01/11 04:40:06;;;;;;;15.80;7.63;;;2.60;81.90;;;;;;5041352;28;20220;-63
2021/01/11 04:42:50;;;;;;;13.60;7.53;;;2.60;81.50;;;;;;5041255;28;20065;-63
2021/01/11 04:45:18;;;;;;;13.68;7.45;;;2.60;81.50;;;;;;5040966;28;20103;-63
2021/01/11 04:47:44;;;;;;;13.30;7.80;;;2.50;82.00;;;;;;5041213;28;20047;-63
2021/01/11 04:50:11;;;;;;;14.57;8.10;;;2.60;82.20;;;;;;5040985;28;20052;-63
2021/01/11 04:52:38;;;;;;;13.38;7.35;;;2.70;82.30;;;;;;5040417;28;20025;-64
2021/01/11 04:55:07;;;;;;;14.43;7.93;;;2.70;81.40;;;;;;5040981;28;20108;-63
2021/01/11 04:57:35;;;;;;;14.82;7.40;;;2.70;81.60;;;;;;5041014;28;20033;-63
2021/01/11 05:00:05;;;;;;;14.00;7.95;;;2.80;81.20;;;;;;5041612;28;20033;-63
2021/01/11 05:02:32;;;;;;;15.68;8.55;;;2.80;81.60;;;;;;5039536;28;20114;-63
2021/01/11 05:04:58;;;;;;;15.35;7.60;;;2.80;81.50;;;;;;5041014;28;20044;-63
2021/01/11 05:07:30;;;;;;;14.07;7.97;;;2.80;80.80;;;;;;5041598;28;20033;-63
2021/01/11 05:09:55;;;;;;;13.77;7.55;;;2.80;81.20;;;;;;5041654;28;20044;-63
2021/01/11 05:12:21;;;;;;;18.15;8.00;;;2.90;81.00;;;;;;5041412;28;20036;-63
2021/01/11 05:14:47;;;;;;;13.68;7.25;;;2.90;80.50;;;;;;5041219;28;20033;-62
2021/01/11 05:17:16;;;;;;;15.02;8.27;;;2.80;80.70;;;;;;5041322;28;20075;-63
2021/01/11 05:19:42;;;;;;;15.38;8.70;;;2.80;81.20;;;;;;5040245;28;20029;-63
2021/01/11 05:22:09;;;;;;;14.20;7.60;;;2.90;81.10;;;;;;5040741;28;20040;-63
2021/01/11 05:24:36;;;;;;;15.27;7.55;;;2.90;81.20;;;;;;5040990;28;20059;-62
2021/01/11 05:27:07;;;;;;;13.30;6.53;;;3.00;80.70;;;;;;5033917;28;20025;-63
2021/01/11 05:29:34;;;;;;;13.55;7.90;;;2.90;80.60;;;;;;5041197;28;20033;-63
2021/01/11 05:32:02;;;;;;;12.15;7.07;;;3.00;80.20;;;;;;5040483;28;20818;-63
2021/01/11 05:34:48;;;;;;;12.68;7.30;;;3.00;79.90;;;;;;5041034;28;20041;-62
2021/01/11 05:37:32;;;;;;;12.68;7.07;;;3.00;79.90;;;;;;5040485;28;20033;-63
2021/01/11 05:40:04;;;;;;;16.95;7.60;;;3.00;79.90;;;;;;5041027;28;20028;-63
2021/01/11 05:42:30;;;;;;;13.65;7.65;;;3.00;79.60;;;;;;5040044;28;20036;-63
2021/01/11 05:45:09;;;;;;;12.65;7.15;;;3.00;79.30;;;;;;5040837;28;20592;-63
2021/01/11 05:47:51;;;;;;;12.90;7.40;;;2.90;79.50;;;;;;5040695;28;20890;-63
2021/01/11 05:50:17;;;;;;;15.23;7.85;;;2.90;79.90;;;;;;5040935;28;20405;-62
2021/01/11 05:52:43;;;;;;;13.88;7.55;;;2.90;79.60;;;;;;5039803;28;20044;-63
2021/01/11 05:55:19;;;;;;;12.07;7.07;;;2.90;79.70;;;;;;5040831;28;20036;-63
2021/01/11 05:58:05;;;;;;;13.68;7.05;;;2.90;80.00;;;;;;5039396;28;20766;-63
2021/01/11 06:00:33;;;;;;;15.02;8.00;;;2.90;79.70;;;;;;5040859;28;20108;-63
2021/01/11 06:03:00;;;;;;;12.48;6.93;;;3.00;79.10;;;;;;5040244;28;20107;-63
2021/01/11 06:05:28;;;;;;;13.82;7.40;;;3.00;78.90;;;;;;5039650;28;20028;-63
2021/01/11 06:07:54;;;;;;;14.50;7.97;;;3.10;79.10;;;;;;5040654;28;20029;-63
2021/01/11 06:10:21;;;;;;;13.13;7.60;;;3.10;78.80;;;;;;5033211;28;20563;-63
2021/01/11 06:12:48;;;;;;;11.63;6.85;;;3.10;78.40;;;;;;5038345;28;20028;-63
2021/01/11 06:15:19;;;;;;;14.52;6.57;;;3.10;78.30;;;;;;5028680;28;20037;-63
2021/01/11 06:17:47;;;;;;;14.57;7.95;;;3.10;78.00;;;;;;5026364;28;20036;-63
2021/01/11 06:20:17;;;;;;;11.98;6.75;;;3.10;77.70;;;;;;5033914;28;20516;-63
2021/01/11 06:22:45;;;;;;;14.10;7.78;;;3.00;78.30;;;;;;5038328;28;20036;-63
2021/01/11 06:25:31;;;;;;;13.30;7.57;;;3.00;78.60;;;;;;5038510;28;20045;-63
2021/01/11 06:28:11;;;;;;;14.23;7.60;;;3.00;78.00;;;;;;5028033;28;20048;-62
2021/01/11 06:30:38;;;;;;;14.75;7.45;;;3.10;77.80;;;;;;5037558;28;20571;-63
2021/01/11 06:33:06;;;;;;;12.43;7.35;;;2.90;77.90;;;;;;5037323;28;20911;-63
2021/01/11 06:35:38;;;;;;;12.68;7.00;;;2.90;78.40;;;;;;5024845;28;20036;-63
2021/01/11 06:38:18;;;;;;;13.20;7.20;;;2.90;78.50;;;;;;5031023;28;20124;-62
2021/01/11 06:40:51;;;;;;;13.77;8.15;;;2.90;78.20;;;;;;5038427;28;20549;-62
2021/01/11 06:43:18;;;;;;;14.00;8.02;;;2.90;78.20;;;;;;5033008;28;20045;-63
2021/01/11 06:45:45;;;;;;;14.88;7.43;;;2.80;78.20;;;;;;5035087;28;20503;-63
2021/01/11 06:48:20;;;;;;;17.48;8.15;;;2.80;78.50;;;;;;5036815;28;20037;-63
2021/01/11 06:50:50;;;;;;;13.48;7.13;;;2.80;78.50;;;;;;5038122;28;20041;-63
2021/01/11 06:53:37;;;;;;;15.27;7.80;;;2.90;78.40;;;;;;5033891;28;20076;-63
2021/01/11 06:56:10;;;;;;;13.30;7.43;;;2.80;78.10;;;;;;5038113;28;20041;-63
2021/01/11 06:58:40;;;;;;;12.68;7.03;;;2.90;78.40;;;;;;5030084;28;20029;-63
2021/01/11 07:01:13;;;;;;;12.20;7.55;;;2.90;78.50;;;;;;5033368;28;20036;-63
2021/01/11 07:03:45;;;;;;;15.82;8.05;;;2.90;78.00;;;;;;5035438;28;20094;-63
2021/01/11 07:06:33;;;;;;;14.13;7.72;;;2.90;78.30;;;;;;5035668;28;20054;-63
2021/01/11 07:09:19;;;;;;;12.35;7.65;;;2.90;78.40;;;;;;5031613;28;20481;-64
2021/01/11 07:11:46;;;;;;;11.93;7.23;;;2.90;78.10;;;;;;5036541;28;20041;-63
2021/01/11 07:14:14;;;;;;;13.15;7.35;;;3.00;77.90;;;;;;5032378;28;20870;-64
2021/01/11 07:16:49;;;;;;;15.25;7.32;;;2.90;78.30;;;;;;5032028;28;20064;-63
2021/01/11 07:19:19;;;;;;;14.38;7.72;;;2.90;77.60;;;;;;5038113;28;20056;-64
2021/01/11 07:21:49;;;;;;;14.00;8.15;;;2.90;77.50;;;;;;5031709;28;20037;-64
2021/01/11 07:24:16;;;;;;;14.13;6.97;;;2.80;78.40;;;;;;5038094;28;20368;-63
2021/01/11 07:26:43;;;;;;;16.48;8.85;;;2.70;78.70;;;;;;5049039;28;20136;-63
2021/01/11 07:29:17;;;;;;;15.48;7.47;;;2.70;79.20;;;;;;5026730;28;20079;-63
2021/01/11 07:31:45;;;;;;;13.43;7.03;;;2.70;78.50;;;;;;5041209;28;20036;-62
2021/01/11 07:34:13;;;;;;;15.00;7.35;;;2.50;79.20;;;;;;5030075;28;20637;-63
2021/01/11 07:36:43;;;;;;;13.85;7.78;;;2.50;80.20;;;;;;5028474;28;20040;-62
2021/01/11 07:39:22;;;;;;;13.77;7.05;;;2.60;79.20;;;;;;5038477;28;20086;-62
2021/01/11 07:42:09;;;;;;;13.13;6.88;;;2.60;79.20;;;;;;5040653;28;20029;-64
2021/01/11 07:44:36;;;;;;;12.68;7.28;;;2.60;79.40;;;;;;5040373;28;20052;-63
2021/01/11 07:47:09;;;;;;;12.70;7.05;;;2.70;78.70;;;;;;5038495;28;20037;-63
2021/01/11 07:49:40;;;;;;;11.82;7.38;;;2.80;78.70;;;;;;5039806;28;20790;-63
2021/01/11 07:52:11;;;;;;;13.50;7.20;;;2.80;78.60;;;;;;5040676;28;20071;-62
2021/01/11 07:54:37;;;;;;;12.60;6.97;;;2.80;77.50;;;;;;5040047;28;20060;-63
2021/01/11 07:57:08;;;;;;;15.98;7.82;;;2.80;77.50;;;;;;5039671;28;20744;-63
2021/01/11 07:59:34;;;;;;;16.58;8.10;;;2.80;78.70;;;;;;5039173;28;20044;-67
2021/01/11 08:02:03;;;;;;;10.55;6.57;;;2.80;77.80;;;;;;5040138;28;20033;-68
2021/01/11 08:04:38;;;;;;;11.75;6.88;;;2.90;78.00;;;;;;5034256;28;20041;-64
2021/01/11 08:07:13;;;;;;;12.77;7.10;;;2.80;78.00;;;;;;5036017;28;20029;-64
2021/01/11 08:09:40;;;;;;;11.55;6.95;;;2.90;78.10;;;;;;5035121;28;20037;-63
2021/01/11 08:12:15;;;;;;;12.40;6.63;;;2.90;77.20;;;;;;5039880;28;20149;-63
2021/01/11 08:14:42;;;;;;;13.82;6.75;;;2.90;77.30;;;;;;5040153;28;20059;-63
2021/01/11 08:17:15;;;;;;;14.68;6.80;;;2.90;77.20;;;;;;5038414;28;20040;-64
2021/01/11 08:19:42;;;;;;;13.15;6.60;;;2.80;78.00;;;;;;5035275;28;20060;-63
2021/01/11 08:22:10;;;;;;;12.25;6.50;;;2.80;77.90;;;;;;5039701;28;20538;-63
2021/01/11 08:24:36;;;;;;;14.27;7.22;;;2.80;77.40;;;;;;5039364;28;20124;-64
2021/01/11 08:27:07;;;;;;;13.38;7.90;;;2.80;78.30;;;;;;5039148;28;20057;-62
2021/01/11 08:29:38;;;;;;;13.93;7.93;;;2.80;78.60;;;;;;5039204;28;20064;-62
2021/01/11 08:32:08;;;;;;;10.15;6.13;;;2.80;78.40;;;;;;5039249;28;20041;-61
2021/01/11 08:34:34;;;;;;;13.50;7.00;;;2.80;78.20;;;;;;5035479;28;20041;-63
2021/01/11 08:37:00;;;;;;;12.18;6.82;;;2.80;78.70;;;;;;5026143;28;20056;-64
2021/01/11 08:39:26;;;;;;;14.63;7.57;;;2.80;78.40;;;;;;5032375;28;20037;-63
2021/01/11 08:41:54;;;;;;;13.00;6.78;;;2.90;78.70;;;;;;5030487;28;20151;-64
2021/01/11 08:44:33;;;;;;;14.60;7.22;;;2.80;77.90;;;;;;5037831;28;20139;-63
2021/01/11 08:47:04;;;;;;;12.13;6.68;;;2.90;78.30;;;;;;5031026;28;20039;-63
2021/01/11 08:49:31;;;;;;;10.65;5.85;;;3.00;77.70;;;;;;5016137;28;20041;-63
2021/01/11 08:52:08;;;;;;;10.43;5.90;;;3.10;77.10;;;;;;5035676;28;20044;-65
2021/01/11 08:54:33;;;;;;;11.52;5.93;;;3.20;77.00;;;;;;5051470;28;20464;-63
2021/01/11 08:57:09;;;;;;;11.48;6.60;;;3.30;75.90;;;;;;5037914;28;20040;-63
2021/01/11 08:59:35;;;;;;;13.20;6.38;;;3.20;76.70;;;;;;5031141;28;20079;-63
2021/01/11 09:02:00;;;;;;;12.52;6.40;;;3.10;76.20;;;;;;5039146;28;20025;-63
2021/01/11 09:04:36;;;;;;;10.82;5.88;;;3.10;76.20;;;;;;5037473;28;20507;-63
2021/01/11 09:07:06;;;;;;;12.20;5.72;;;3.10;76.30;;;;;;5038562;28;20037;-63
2021/01/11 09:09:36;;;;;;;10.80;6.00;;;3.20;76.20;;;;;;5033628;28;20576;-63
2021/01/11 09:12:08;;;;;;;13.60;6.18;;;3.20;76.30;;;;;;5036131;28;20045;-63
2021/01/11 09:14:35;;;;;;;10.35;5.50;;;3.30;76.00;;;;;;5026563;28;20033;-63
2021/01/11 09:17:05;;;;;;;10.60;6.22;;;3.30;75.80;;;;;;5038230;28;20129;-67
2021/01/11 09:19:32;;;;;;;8.35;5.47;;;3.40;75.80;;;;;;5037006;28;20097;-65
2021/01/11 09:22:17;;;;;;;9.50;5.47;;;3.40;75.60;;;;;;5040003;28;20749;-63
2021/01/11 09:24:43;;;;;;;10.55;5.28;;;3.40;75.10;;;;;;5037932;28;20152;-62
2021/01/11 09:27:09;;;;;;;10.32;5.75;;;3.40;75.20;;;;;;5034976;28;20041;-62
2021/01/11 09:29:37;;;;;;;7.72;4.68;;;3.40;75.40;;;;;;5039459;28;20052;-62
2021/01/11 09:32:03;;;;;;;9.30;5.32;;;3.40;75.10;;;;;;5038606;28;20032;-62
2021/01/11 09:34:29;;;;;;;9.73;5.97;;;3.50;75.50;;;;;;5037729;28;20135;-62
2021/01/11 09:36:54;;;;;;;10.48;5.40;;;3.60;75.30;;;;;;5040400;28;20477;-62
2021/01/11 09:39:20;;;;;;;7.78;5.03;;;3.50;75.00;;;;;;5038198;28;20032;-62
2021/01/11 09:41:53;;;;;;;11.05;5.70;;;3.40;75.20;;;;;;5038944;28;20108;-62
2021/01/11 09:44:20;;;;;;;9.55;5.82;;;3.40;75.90;;;;;;5037054;28;20504;-62
2021/01/11 09:46:49;;;;;;;11.65;6.07;;;3.50;75.50;;;;;;5036247;28;20144;-62
2021/01/11 09:49:16;;;;;;;8.95;5.45;;;3.50;75.40;;;;;;5038461;28;20032;-62
2021/01/11 09:51:42;;;;;;;10.27;5.85;;;3.50;75.60;;;;;;5035988;28;20045;-62
2021/01/11 09:54:08;;;;;;;9.75;6.00;;;3.40;74.80;;;;;;5028533;28;20033;-62
2021/01/11 09:56:36;;;;;;;9.60;5.38;;;3.30;75.80;;;;;;5035693;28;20021;-62
2021/01/11 09:59:03;;;;;;;10.32;5.75;;;3.30;76.20;;;;;;5039149;28;20025;-61
2021/01/11 10:01:46;;;;;;;10.63;5.70;;;3.40;75.20;;;;;;5038692;28;20028;-69
2021/01/11 10:04:14;;;;;;;7.72;4.90;;;3.40;75.80;;;;;;5038765;28;20202;-65
2021/01/11 10:06:45;;;;;;;7.72;4.88;;;3.50;76.20;;;;;;5037270;28;20043;-62
2021/01/11 10:09:15;;;;;;;10.13;5.25;;;3.60;75.10;;;;;;5036150;28;20036;-61
2021/01/11 10:11:43;;;;;;;7.97;5.47;;;3.50;74.60;;;;;;5038330;28;20464;-61
2021/01/11 10:14:10;;;;;;;8.45;5.05;;;3.50;74.30;;;;;;5035163;28;20817;-61
2021/01/11 10:16:39;;;;;;;10.60;5.60;;;3.50;75.70;;;;;;5034502;28;20033;-60
2021/01/11 10:19:05;;;;;;;8.73;4.53;;;3.60;75.60;;;;;;5032580;28;20330;-61
2021/01/11 10:21:31;;;;;;;11.63;5.38;;;3.50;75.10;;;;;;5038177;28;20544;-61
2021/01/11 10:23:56;;;;;;;8.63;4.78;;;3.60;74.40;;;;;;5037947;28;20136;-60
2021/01/11 10:26:22;;;;;;;9.13;5.63;;;3.70;74.80;;;;;;5037255;28;20033;-60
2021/01/11 10:28:49;;;;;;;10.43;5.03;;;3.60;74.40;;;;;;5037829;28;20068;-60
2021/01/11 10:31:16;;;;;;;8.38;5.13;;;3.60;74.70;;;;;;5035830;28;20033;-60
2021/01/11 10:33:45;;;;;;;8.02;4.93;;;3.60;75.00;;;;;;5034631;28;20036;-60
2021/01/11 10:36:12;;;;;;;9.15;4.78;;;3.70;75.20;;;;;;5027425;28;20172;-62
2021/01/11 10:38:39;;;;;;;9.10;5.20;;;3.60;74.80;;;;;;5032694;28;20029;-62
2021/01/11 10:41:05;;;;;;;9.82;4.97;;;3.60;75.20;;;;;;5037717;28;20107;-63
2021/01/11 10:43:32;;;;;;;8.18;4.80;;;3.60;75.20;;;;;;5037325;28;20215;-63
2021/01/11 10:45:59;;;;;;;9.43;5.07;;;3.60;74.80;;;;;;5033611;28;20058;-69
2021/01/11 10:48:25;;;;;;;9.02;4.18;;;3.60;75.00;;;;;;5035968;28;20838;-62
2021/01/11 10:50:51;;;;;;;8.00;4.40;;;3.60;74.50;;;;;;5037749;28;20119;-68
2021/01/11 10:53:17;;;;;;;7.50;4.50;;;3.60;74.60;;;;;;5051787;28;20043;-63
2021/01/11 10:55:42;;;;;;;9.45;5.00;;;3.70;74.90;;;;;;5037019;28;20052;-63
2021/01/11 10:58:09;;;;;;;8.23;4.95;;;3.70;74.70;;;;;;5037324;28;20118;-63
2021/01/11 11:00:34;;;;;;;6.85;3.90;;;3.60;75.20;;;;;;5032267;28;20043;-66
2021/01/11 11:03:00;;;;;;;7.45;4.40;;;3.50;76.80;;;;;;5037315;28;20029;-62
2021/01/11 11:05:26;;;;;;;13.10;5.40;;;3.50;77.00;;;;;;5034673;28;20041;-62
2021/01/11 11:07:53;;;;;;;8.80;5.18;;;3.40;77.00;;;;;;5037450;28;20707;-62
2021/01/11 11:10:18;;;;;;;8.52;4.60;;;3.40;76.80;;;;;;5037347;28;20794;-68
2021/01/11 11:12:44;;;;;;;7.85;4.78;;;3.40;77.20;;;;;;5034557;28;20108;-65
2021/01/11 11:15:10;;;;;;;8.38;4.40;;;3.40;77.40;;;;;;5030313;28;20036;-62
2021/01/11 11:17:36;;;;;;;8.35;4.80;;;3.40;77.80;;;;;;5037163;28;20037;-66
2021/01/11 11:20:02;;;;;;;6.90;4.60;;;3.40;78.10;;;;;;5051209;28;20033;-66
2021/01/11 11:22:28;;;;;;;9.30;4.80;;;3.40;78.30;;;;;;5034431;28;20108;-63
2021/01/11 11:24:53;;;;;;;8.55;4.50;;;3.40;78.00;;;;;;5036189;28;20043;-64
2021/01/11 11:27:19;;;;;;;8.70;4.43;;;3.30;77.60;;;;;;5036101;28;20064;-62
2021/01/11 11:29:45;;;;;;;7.82;4.50;;;3.40;78.00;;;;;;5036096;28;20099;-63
2021/01/11 11:32:12;;;;;;;12.40;5.18;;;3.40;78.20;;;;;;5035509;28;20033;-74
2021/01/11 11:34:38;;;;;;;9.25;4.20;;;3.40;77.60;;;;;;5033385;28;20029;-63
2021/01/11 11:37:04;;;;;;;7.75;3.97;;;3.40;78.00;;;;;;5020576;28;20746;-62
2021/01/11 11:39:30;;;;;;;8.88;4.55;;;3.50;78.30;;;;;;5033635;28;20061;-62
2021/01/11 11:41:59;;;;;;;7.00;4.28;;;3.60;78.00;;;;;;5036292;28;20051;-62
2021/01/11 11:44:26;;;;;;;9.15;4.53;;;3.60;77.20;;;;;;5036022;28;20041;-62
2021/01/11 11:46:52;;;;;;;5.85;4.05;;;3.70;77.10;;;;;;5035792;28;20064;-62
2021/01/11 11:49:18;;;;;;;7.25;4.05;;;3.80;76.80;;;;;;5036199;28;20124;-63
2021/01/11 11:51:45;;;;;;;11.40;4.43;;;3.70;75.80;;;;;;5031115;28;20033;-62
2021/01/11 11:54:11;;;;;;;8.68;4.30;;;3.80;75.60;;;;;;5031326;28;20037;-63
2021/01/11 11:56:43;;;;;;;7.85;4.65;;;3.80;75.80;;;;;;5035404;28;20728;-62
2021/01/11 11:59:09;;;;;;;7.65;4.30;;;3.60;75.40;;;;;;5030947;28;20033;-62
2021/01/11 12:01:40;;;;;;;9.90;4.55;;;3.60;76.40;;;;;;5035550;28;20536;-62
2021/01/11 12:04:08;;;;;;;7.47;4.43;;;3.50;76.50;;;;;;5036445;28;20048;-62
2021/01/11 12:06:38;;;;;;;7.50;4.38;;;3.50;76.60;;;;;;5034097;28;20076;-62
2021/01/11 12:09:04;;;;;;;7.45;3.92;;;3.60;76.50;;;;;;5032577;28;20127;-62
2021/01/11 12:11:49;;;;;;;6.97;4.57;;;3.50;76.70;;;;;;5035344;28;20033;-62
2021/01/11 12:14:16;;;;;;;8.90;4.68;;;3.40;76.80;;;;;;5039291;28;20068;-62
2021/01/11 12:16:42;;;;;;;6.30;4.03;;;3.40;77.00;;;;;;5038366;28;20068;-62
2021/01/11 12:19:08;;;;;;;7.15;4.32;;;3.40;76.60;;;;;;5039703;28;20140;-62
2021/01/11 12:21:35;;;;;;;9.55;5.22;;;3.40;76.90;;;;;;5033730;28;20032;-62
2021/01/11 12:24:02;;;;;;;9.05;4.43;;;3.40;77.40;;;;;;5039845;28;20070;-62
2021/01/11 12:26:40;;;;;;;11.27;6.68;;;3.40;77.30;;;;;;5038744;28;20040;-72
2021/01/11 12:29:07;;;;;;;10.20;4.78;;;3.50;78.80;;;;;;5038742;28;20048;-62
2021/01/11 12:31:32;;;;;;;8.20;4.80;;;3.50;77.80;;;;;;5039664;28;20029;-62
2021/01/11 12:33:58;;;;;;;8.27;4.68;;;3.40;78.40;;;;;;5035731;28;20118;-62
2021/01/11 12:36:28;;;;;;;9.95;5.32;;;3.40;77.60;;;;;;5025363;28;20037;-62
2021/01/11 12:38:55;;;;;;;9.27;5.50;;;3.30;78.30;;;;;;5029386;28;20124;-62
2021/01/11 12:41:25;;;;;;;10.15;4.95;;;3.30;78.60;;;;;;5038948;28;20052;-62
2021/01/11 12:43:51;;;;;;;8.75;4.70;;;3.30;79.40;;;;;;5028823;28;20037;-65
2021/01/11 12:46:19;;;;;;;8.98;5.15;;;3.30;78.90;;;;;;5035695;28;20048;-62
2021/01/11 12:48:45;;;;;;;9.38;5.00;;;3.30;79.00;;;;;;5039293;28;20028;-62
2021/01/11 12:51:12;;;;;;;8.80;5.13;;;3.10;79.60;;;;;;5038316;28;20040;-62
2021/01/11 12:53:38;;;;;;;8.35;4.97;;;3.10;80.30;;;;;;5039259;28;20037;-61
2021/01/11 12:56:17;;;;;;;8.43;5.00;;;3.10;80.50;;;;;;5038241;28;20032;-62
2021/01/11 12:58:47;;;;;;;8.43;5.05;;;3.00;80.80;;;;;;5033801;28;20102;-61